sensor_id;sensor_type;location;lat;lon;timestamp;pressure;altitude;pressure_sealevel;temperature;humidity
73103;BME280;61294;65.988;29.172;2023-06-14T00:00:19;98830.09;;;8.03;61.43
73103;BME280;61294;65.988;29.172;2023-06-14T00:02:45;98826.56;;;7.98;61.37
73103;BME280;61294;65.988;29.172;2023-06-14T00:05:11;98839.50;;;7.79;62.54
73103;BME280;61294;65.988;29.172;2023-06-14T00:07:41;98810.50;;;7.64;62.75
73103;BME280;61294;65.988;29.172;2023-06-14T00:10:11;98828.00;;;7.63;62.79
73103;BME280;61294;65.988;29.172;2023-06-14T00:12:38;98830.59;;;7.60;63.73
73103;BME280;61294;65.988;29.172;2023-06-14T00:15:04;98821.97;;;7.73;62.89
73103;BME280;61294;65.988;29.172;2023-06-14T00:17:31;98816.63;;;7.63;63.05
73103;BME280;61294;65.988;29.172;2023-06-14T00:19:59;98815.66;;;7.51;63.90
73103;BME280;61294;65.988;29.172;2023-06-14T00:22:25;98823.63;;;7.64;63.63
73103;BME280;61294;65.988;29.172;2023-06-14T00:24:51;98835.06;;;7.70;63.46
73103;BME280;61294;65.988;29.172;2023-06-14T00:27:17;98825.41;;;7.66;63.55
73103;BME280;61294;65.988;29.172;2023-06-14T00:29:43;98831.44;;;7.60;63.86
73103;BME280;61294;65.988;29.172;2023-06-14T00:32:09;98820.13;;;7.63;63.60
73103;BME280;61294;65.988;29.172;2023-06-14T00:34:35;98823.53;;;7.54;63.75
73103;BME280;61294;65.988;29.172;2023-06-14T00:37:01;98845.28;;;7.44;64.55
73103;BME280;61294;65.988;29.172;2023-06-14T00:39:27;98821.44;;;7.22;65.03
73103;BME280;61294;65.988;29.172;2023-06-14T00:41:53;98839.25;;;7.53;64.52
73103;BME280;61294;65.988;29.172;2023-06-14T00:44:19;98835.81;;;7.57;64.35
73103;BME280;61294;65.988;29.172;2023-06-14T00:46:47;98840.25;;;7.64;63.57
73103;BME280;61294;65.988;29.172;2023-06-14T00:49:17;98833.25;;;7.65;63.41
73103;BME280;61294;65.988;29.172;2023-06-14T00:51:43;98812.19;;;7.55;63.20
73103;BME280;61294;65.988;29.172;2023-06-14T00:54:09;98847.19;;;7.60;63.70
73103;BME280;61294;65.988;29.172;2023-06-14T00:56:36;98832.28;;;7.55;63.91
73103;BME280;61294;65.988;29.172;2023-06-14T00:59:03;98834.09;;;7.62;64.18
73103;BME280;61294;65.988;29.172;2023-06-14T01:01:30;98834.06;;;7.60;64.49
73103;BME280;61294;65.988;29.172;2023-06-14T01:03:58;98831.47;;;7.62;64.13
73103;BME280;61294;65.988;29.172;2023-06-14T01:10:00;98800.63;;;7.38;64.49
73103;BME280;61294;65.988;29.172;2023-06-14T01:15:00;98840.06;;;7.49;64.40
73103;BME280;61294;65.988;29.172;2023-06-14T01:17:26;98842.72;;;7.50;64.46
73103;BME280;61294;65.988;29.172;2023-06-14T01:19:52;98849.72;;;7.50;64.87
73103;BME280;61294;65.988;29.172;2023-06-14T01:22:25;98792.56;;;7.19;64.69
73103;BME280;61294;65.988;29.172;2023-06-14T01:24:51;98851.41;;;7.46;65.00
73103;BME280;61294;65.988;29.172;2023-06-14T01:27:22;98840.03;;;7.42;65.02
73103;BME280;61294;65.988;29.172;2023-06-14T01:29:51;98849.81;;;7.60;64.83
73103;BME280;61294;65.988;29.172;2023-06-14T01:32:24;98844.50;;;7.53;64.84
73103;BME280;61294;65.988;29.172;2023-06-14T01:34:50;98847.97;;;7.53;64.89
73103;BME280;61294;65.988;29.172;2023-06-14T01:37:16;98853.09;;;7.41;65.39
73103;BME280;61294;65.988;29.172;2023-06-14T01:39:43;98803.97;;;7.21;65.17
73103;BME280;61294;65.988;29.172;2023-06-14T01:42:10;98852.34;;;7.51;65.58
73103;BME280;61294;65.988;29.172;2023-06-14T01:44:39;98837.47;;;7.49;64.69
73103;BME280;61294;65.988;29.172;2023-06-14T01:47:05;98855.16;;;7.70;63.33
73103;BME280;61294;65.988;29.172;2023-06-14T01:49:34;98835.94;;;7.72;62.94
73103;BME280;61294;65.988;29.172;2023-06-14T01:52:00;98836.88;;;7.77;62.69
73103;BME280;61294;65.988;29.172;2023-06-14T01:54:26;98840.44;;;7.84;62.93
73103;BME280;61294;65.988;29.172;2023-06-14T01:56:52;98843.94;;;7.88;63.62
73103;BME280;61294;65.988;29.172;2023-06-14T01:59:18;98838.66;;;7.80;62.95
73103;BME280;61294;65.988;29.172;2023-06-14T02:01:44;98838.66;;;7.83;63.95
73103;BME280;61294;65.988;29.172;2023-06-14T02:04:11;98822.88;;;7.74;64.43
73103;BME280;61294;65.988;29.172;2023-06-14T02:06:37;98845.69;;;7.84;64.61
73103;BME280;61294;65.988;29.172;2023-06-14T02:09:03;98850.13;;;7.91;64.58
73103;BME280;61294;65.988;29.172;2023-06-14T02:11:29;98855.38;;;7.91;64.20
73103;BME280;61294;65.988;29.172;2023-06-14T02:13:55;98857.13;;;7.92;64.72
73103;BME280;61294;65.988;29.172;2023-06-14T02:16:21;98845.81;;;7.98;64.25
73103;BME280;61294;65.988;29.172;2023-06-14T02:18:48;98860.66;;;7.99;64.40
73103;BME280;61294;65.988;29.172;2023-06-14T02:21:14;98837.06;;;7.99;63.73
73103;BME280;61294;65.988;29.172;2023-06-14T02:23:40;98863.38;;;8.07;63.95
73103;BME280;61294;65.988;29.172;2023-06-14T02:26:06;98865.19;;;8.14;63.35
73103;BME280;61294;65.988;29.172;2023-06-14T02:28:32;98852.06;;;8.14;63.54
73103;BME280;61294;65.988;29.172;2023-06-14T02:30:58;98861.75;;;8.24;62.92
73103;BME280;61294;65.988;29.172;2023-06-14T02:33:23;98866.16;;;8.25;63.06
73103;BME280;61294;65.988;29.172;2023-06-14T02:35:50;98867.06;;;8.34;62.51
73103;BME280;61294;65.988;29.172;2023-06-14T02:38:18;98866.22;;;8.36;62.34
73103;BME280;61294;65.988;29.172;2023-06-14T02:40:43;98872.41;;;8.41;62.93
73103;BME280;61294;65.988;29.172;2023-06-14T02:43:09;98861.03;;;8.44;62.90
73103;BME280;61294;65.988;29.172;2023-06-14T02:45:35;98864.56;;;8.46;62.46
73103;BME280;61294;65.988;29.172;2023-06-14T02:48:00;98845.34;;;8.49;61.80
73103;BME280;61294;65.988;29.172;2023-06-14T02:50:26;98866.38;;;8.55;61.30
73103;BME280;61294;65.988;29.172;2023-06-14T02:52:53;98862.09;;;8.68;60.47
73103;BME280;61294;65.988;29.172;2023-06-14T02:55:21;98867.34;;;8.68;60.62
73103;BME280;61294;65.988;29.172;2023-06-14T02:57:47;98862.16;;;8.75;60.46
73103;BME280;61294;65.988;29.172;2023-06-14T03:00:13;98860.41;;;8.77;59.31
73103;BME280;61294;65.988;29.172;2023-06-14T03:02:39;98846.41;;;8.80;59.16
73103;BME280;61294;65.988;29.172;2023-06-14T03:05:05;98871.03;;;8.97;59.27
73103;BME280;61294;65.988;29.172;2023-06-14T03:07:32;98874.56;;;9.03;59.27
73103;BME280;61294;65.988;29.172;2023-06-14T03:09:58;98879.84;;;9.07;59.60
73103;BME280;61294;65.988;29.172;2023-06-14T03:12:23;98886.88;;;9.16;58.88
73103;BME280;61294;65.988;29.172;2023-06-14T03:14:50;98886.03;;;9.19;59.08
73103;BME280;61294;65.988;29.172;2023-06-14T03:17:17;98890.44;;;9.24;58.87
73103;BME280;61294;65.988;29.172;2023-06-14T03:19:43;98886.09;;;9.40;57.62
73103;BME280;61294;65.988;29.172;2023-06-14T03:22:09;98869.44;;;9.33;57.61
73103;BME280;61294;65.988;29.172;2023-06-14T03:24:37;98867.69;;;9.39;57.21
73103;BME280;61294;65.988;29.172;2023-06-14T03:27:03;98885.25;;;9.46;57.42
73103;BME280;61294;65.988;29.172;2023-06-14T03:29:29;98886.16;;;9.46;57.69
73103;BME280;61294;65.988;29.172;2023-06-14T03:32:03;98887.94;;;9.52;58.08
73103;BME280;61294;65.988;29.172;2023-06-14T03:34:28;98891.44;;;9.60;57.64
73103;BME280;61294;65.988;29.172;2023-06-14T03:36:54;98880.91;;;9.60;56.84
73103;BME280;61294;65.988;29.172;2023-06-14T03:39:20;98883.59;;;9.73;56.84
73103;BME280;61294;65.988;29.172;2023-06-14T03:41:46;98899.38;;;9.79;56.42
73103;BME280;61294;65.988;29.172;2023-06-14T03:44:15;98892.34;;;9.73;56.36
73103;BME280;61294;65.988;29.172;2023-06-14T03:46:42;98889.75;;;9.79;55.86
73103;BME280;61294;65.988;29.172;2023-06-14T03:49:07;98892.38;;;9.82;57.59
73103;BME280;61294;65.988;29.172;2023-06-14T03:51:33;98900.31;;;9.93;55.36
73103;BME280;61294;65.988;29.172;2023-06-14T03:54:01;98886.25;;;9.88;55.00
73103;BME280;61294;65.988;29.172;2023-06-14T03:56:26;98895.91;;;9.97;54.30
73103;BME280;61294;65.988;29.172;2023-06-14T03:58:52;98900.31;;;9.98;55.60
73103;BME280;61294;65.988;29.172;2023-06-14T04:01:18;98905.56;;;10.04;54.68
73103;BME280;61294;65.988;29.172;2023-06-14T04:03:44;98871.38;;;9.95;54.50
73103;BME280;61294;65.988;29.172;2023-06-14T04:06:09;98888.00;;;10.05;53.79
73103;BME280;61294;65.988;29.172;2023-06-14T04:08:35;98874.00;;;9.99;54.04
73103;BME280;61294;65.988;29.172;2023-06-14T04:11:01;98894.16;;;10.16;53.77
73103;BME280;61294;65.988;29.172;2023-06-14T04:13:27;98894.19;;;10.28;53.12
73103;BME280;61294;65.988;29.172;2023-06-14T04:15:53;98887.19;;;10.32;52.45
73103;BME280;61294;65.988;29.172;2023-06-14T04:18:19;98889.84;;;10.41;51.51
73103;BME280;61294;65.988;29.172;2023-06-14T04:20:46;98867.91;;;10.56;50.97
73103;BME280;61294;65.988;29.172;2023-06-14T04:23:16;98867.03;;;10.46;50.06
73103;BME280;61294;65.988;29.172;2023-06-14T04:25:43;98879.28;;;10.72;49.74
73103;BME280;61294;65.988;29.172;2023-06-14T04:28:14;98877.53;;;10.69;49.87
73103;BME280;61294;65.988;29.172;2023-06-14T04:30:44;98878.41;;;10.75;49.25
73103;BME280;61294;65.988;29.172;2023-06-14T04:33:12;98866.09;;;10.86;48.79
73103;BME280;61294;65.988;29.172;2023-06-14T04:35:39;98882.72;;;11.05;48.30
73103;BME280;61294;65.988;29.172;2023-06-14T04:38:06;98843.25;;;10.82;48.62
73103;BME280;61294;65.988;29.172;2023-06-14T04:40:35;98879.22;;;10.98;49.40
73103;BME280;61294;65.988;29.172;2023-06-14T04:43:11;98858.09;;;11.03;48.93
73103;BME280;61294;65.988;29.172;2023-06-14T04:45:44;98876.53;;;11.15;49.25
73103;BME280;61294;65.988;29.172;2023-06-14T04:48:12;98867.72;;;11.21;47.85
73103;BME280;61294;65.988;29.172;2023-06-14T04:50:38;98859.78;;;11.24;48.06
73103;BME280;61294;65.988;29.172;2023-06-14T04:53:06;98845.75;;;11.20;48.21
73103;BME280;61294;65.988;29.172;2023-06-14T04:55:32;98873.81;;;11.32;48.02
73103;BME280;61294;65.988;29.172;2023-06-14T04:57:58;98878.19;;;11.47;47.08
73103;BME280;61294;65.988;29.172;2023-06-14T05:00:25;98854.38;;;11.53;47.88
73103;BME280;61294;65.988;29.172;2023-06-14T05:02:50;98872.78;;;11.63;46.03
73103;BME280;61294;65.988;29.172;2023-06-14T05:05:18;98859.56;;;11.72;44.90
73103;BME280;61294;65.988;29.172;2023-06-14T05:07:45;98830.56;;;11.67;44.55
73103;BME280;61294;65.988;29.172;2023-06-14T05:10:11;98847.25;;;11.71;44.63
73103;BME280;61294;65.988;29.172;2023-06-14T05:12:37;98871.84;;;11.79;45.08
73103;BME280;61294;65.988;29.172;2023-06-14T05:15:03;98850.81;;;11.64;45.62
73103;BME280;61294;65.988;29.172;2023-06-14T05:17:30;98869.16;;;11.90;45.27
73103;BME280;61294;65.988;29.172;2023-06-14T05:19:56;98875.28;;;11.95;45.03
73103;BME280;61294;65.988;29.172;2023-06-14T05:22:22;98877.88;;;12.01;44.47
73103;BME280;61294;65.988;29.172;2023-06-14T05:24:47;98854.22;;;11.86;43.43
73103;BME280;61294;65.988;29.172;2023-06-14T05:27:13;98875.16;;;12.12;44.53
73103;BME280;61294;65.988;29.172;2023-06-14T05:29:39;98869.03;;;12.07;44.19
73103;BME280;61294;65.988;29.172;2023-06-14T05:32:06;98857.56;;;12.09;43.37
73103;BME280;61294;65.988;29.172;2023-06-14T05:34:31;98881.19;;;12.33;42.97
73103;BME280;61294;65.988;29.172;2023-06-14T05:36:57;98883.00;;;12.26;42.54
73103;BME280;61294;65.988;29.172;2023-06-14T05:39:24;98876.84;;;12.27;43.16
73103;BME280;61294;65.988;29.172;2023-06-14T05:41:49;98880.25;;;12.40;43.14
73103;BME280;61294;65.988;29.172;2023-06-14T05:44:15;98887.25;;;12.41;42.66
73103;BME280;61294;65.988;29.172;2023-06-14T05:46:41;98874.94;;;12.38;42.71
73103;BME280;61294;65.988;29.172;2023-06-14T05:49:06;98900.44;;;12.49;42.62
73103;BME280;61294;65.988;29.172;2023-06-14T05:51:32;98888.94;;;12.54;41.84
73103;BME280;61294;65.988;29.172;2023-06-14T05:53:59;98883.59;;;12.59;42.16
73103;BME280;61294;65.988;29.172;2023-06-14T05:56:25;98875.66;;;12.59;42.16
73103;BME280;61294;65.988;29.172;2023-06-14T05:58:51;98887.91;;;12.69;42.58
73103;BME280;61294;65.988;29.172;2023-06-14T06:01:17;98857.16;;;12.59;41.30
73103;BME280;61294;65.988;29.172;2023-06-14T06:03:43;98861.50;;;12.66;41.76
73103;BME280;61294;65.988;29.172;2023-06-14T06:06:12;98879.81;;;12.85;40.97
73103;BME280;61294;65.988;29.172;2023-06-14T06:08:38;98886.00;;;12.84;41.79
73103;BME280;61294;65.988;29.172;2023-06-14T06:11:03;98887.66;;;12.92;41.88
73103;BME280;61294;65.988;29.172;2023-06-14T06:13:29;98875.44;;;12.82;42.13
73103;BME280;61294;65.988;29.172;2023-06-14T06:15:55;98888.63;;;12.88;41.98
73103;BME280;61294;65.988;29.172;2023-06-14T06:18:21;98879.75;;;12.94;42.00
73103;BME280;61294;65.988;29.172;2023-06-14T06:20:47;98875.25;;;12.99;42.14
73103;BME280;61294;65.988;29.172;2023-06-14T06:23:13;98880.34;;;13.18;42.49
73103;BME280;61294;65.988;29.172;2023-06-14T06:25:39;98878.56;;;13.21;42.36
73103;BME280;61294;65.988;29.172;2023-06-14T06:28:06;98866.28;;;13.16;41.56
73103;BME280;61294;65.988;29.172;2023-06-14T06:30:32;98877.59;;;13.27;41.45
73103;BME280;61294;65.988;29.172;2023-06-14T06:32:58;98864.38;;;13.24;41.96
73103;BME280;61294;65.988;29.172;2023-06-14T06:35:23;98876.66;;;13.36;41.34
73103;BME280;61294;65.988;29.172;2023-06-14T06:37:49;98872.25;;;13.32;40.38
73103;BME280;61294;65.988;29.172;2023-06-14T06:40:15;98874.03;;;13.28;40.30
73103;BME280;61294;65.988;29.172;2023-06-14T06:42:41;98872.22;;;13.33;40.46
73103;BME280;61294;65.988;29.172;2023-06-14T06:45:07;98866.88;;;13.41;39.95
73103;BME280;61294;65.988;29.172;2023-06-14T06:47:33;98876.50;;;13.46;38.96
73103;BME280;61294;65.988;29.172;2023-06-14T06:49:58;98874.81;;;13.41;39.50
73103;BME280;61294;65.988;29.172;2023-06-14T06:52:24;98870.28;;;13.51;39.24
73103;BME280;61294;65.988;29.172;2023-06-14T06:54:50;98875.38;;;13.66;39.26
73103;BME280;61294;65.988;29.172;2023-06-14T06:57:20;98883.31;;;13.66;37.66
73103;BME280;61294;65.988;29.172;2023-06-14T06:59:48;98872.75;;;13.64;35.84
73103;BME280;61294;65.988;29.172;2023-06-14T07:02:14;98887.75;;;13.64;35.37
73103;BME280;61294;65.988;29.172;2023-06-14T07:04:40;98894.78;;;13.65;34.60
73103;BME280;61294;65.988;29.172;2023-06-14T07:07:06;98873.59;;;13.65;34.69
73103;BME280;61294;65.988;29.172;2023-06-14T07:09:32;98879.78;;;13.67;33.69
73103;BME280;61294;65.988;29.172;2023-06-14T07:11:57;98884.13;;;13.71;34.45
73103;BME280;61294;65.988;29.172;2023-06-14T07:14:23;98880.47;;;13.80;34.40
73103;BME280;61294;65.988;29.172;2023-06-14T07:16:49;98891.88;;;13.87;34.80
73103;BME280;61294;65.988;29.172;2023-06-14T07:19:15;98879.56;;;13.79;35.58
73103;BME280;61294;65.988;29.172;2023-06-14T07:21:41;98876.94;;;13.79;34.81
73103;BME280;61294;65.988;29.172;2023-06-14T07:24:06;98884.50;;;14.06;34.72
73103;BME280;61294;65.988;29.172;2023-06-14T07:26:33;98884.59;;;14.01;34.75
73103;BME280;61294;65.988;29.172;2023-06-14T07:28:59;98890.66;;;14.08;35.63
73103;BME280;61294;65.988;29.172;2023-06-14T07:31:25;98889.75;;;14.09;32.44
73103;BME280;61294;65.988;29.172;2023-06-14T07:33:51;98880.81;;;14.16;33.28
73103;BME280;61294;65.988;29.172;2023-06-14T07:36:17;98891.25;;;14.27;33.53
73103;BME280;61294;65.988;29.172;2023-06-14T07:38:43;98890.44;;;14.22;32.26
73103;BME280;61294;65.988;29.172;2023-06-14T07:41:09;98886.13;;;14.16;32.30
73103;BME280;61294;65.988;29.172;2023-06-14T07:43:35;98911.47;;;14.34;31.30
73103;BME280;61294;65.988;29.172;2023-06-14T07:46:01;98907.78;;;14.43;31.75
73103;BME280;61294;65.988;29.172;2023-06-14T07:48:27;98897.25;;;14.38;31.59
73103;BME280;61294;65.988;29.172;2023-06-14T07:50:53;98908.59;;;14.46;32.28
73103;BME280;61294;65.988;29.172;2023-06-14T07:53:19;98891.81;;;14.46;32.10
73103;BME280;61294;65.988;29.172;2023-06-14T07:55:44;98890.75;;;14.56;33.18
73103;BME280;61294;65.988;29.172;2023-06-14T07:58:12;98895.91;;;14.69;33.31
73103;BME280;61294;65.988;29.172;2023-06-14T08:00:38;98888.53;;;14.84;32.30
73103;BME280;61294;65.988;29.172;2023-06-14T08:03:04;98897.28;;;14.90;31.00
73103;BME280;61294;65.988;29.172;2023-06-14T08:05:30;98896.44;;;14.88;30.94
73103;BME280;61294;65.988;29.172;2023-06-14T08:07:55;98906.13;;;14.90;31.22
73103;BME280;61294;65.988;29.172;2023-06-14T08:10:22;98907.63;;;15.05;32.34
73103;BME280;61294;65.988;29.172;2023-06-14T08:12:48;98911.19;;;15.04;31.28
73103;BME280;61294;65.988;29.172;2023-06-14T08:15:16;98895.69;;;15.26;31.68
73103;BME280;61294;65.988;29.172;2023-06-14T08:17:45;98913.41;;;15.26;31.48
73103;BME280;61294;65.988;29.172;2023-06-14T08:20:11;98907.97;;;15.32;31.50
73103;BME280;61294;65.988;29.172;2023-06-14T08:22:39;98907.97;;;15.32;31.15
73103;BME280;61294;65.988;29.172;2023-06-14T08:25:07;98898.03;;;15.43;31.16
73103;BME280;61294;65.988;29.172;2023-06-14T08:27:34;98896.75;;;15.63;31.90
73103;BME280;61294;65.988;29.172;2023-06-14T08:30:00;98895.22;;;15.51;29.20
73103;BME280;61294;65.988;29.172;2023-06-14T08:32:26;98894.03;;;15.64;29.23
73103;BME280;61294;65.988;29.172;2023-06-14T08:34:52;98885.78;;;15.78;29.26
73103;BME280;61294;65.988;29.172;2023-06-14T08:37:18;98898.16;;;15.81;29.75
73103;BME280;61294;65.988;29.172;2023-06-14T08:39:43;98899.78;;;15.88;29.03
73103;BME280;61294;65.988;29.172;2023-06-14T08:42:10;98888.88;;;16.00;30.36
73103;BME280;61294;65.988;29.172;2023-06-14T08:44:37;98864.31;;;15.91;29.13
73103;BME280;61294;65.988;29.172;2023-06-14T08:47:04;98889.72;;;16.38;28.73
73103;BME280;61294;65.988;29.172;2023-06-14T08:49:31;98895.91;;;16.41;28.31
73103;BME280;61294;65.988;29.172;2023-06-14T08:51:59;98889.06;;;16.29;29.01
73103;BME280;61294;65.988;29.172;2023-06-14T08:54:29;98882.66;;;16.39;28.86
73103;BME280;61294;65.988;29.172;2023-06-14T08:56:59;98901.28;;;16.73;27.11
73103;BME280;61294;65.988;29.172;2023-06-14T08:59:28;98866.97;;;16.63;28.56
73103;BME280;61294;65.988;29.172;2023-06-14T09:01:56;98891.63;;;17.04;29.70
73103;BME280;61294;65.988;29.172;2023-06-14T09:04:23;98883.16;;;17.22;28.94
73103;BME280;61294;65.988;29.172;2023-06-14T09:06:50;98887.53;;;17.25;27.29
73103;BME280;61294;65.988;29.172;2023-06-14T09:09:21;98901.31;;;17.39;28.09
73103;BME280;61294;65.988;29.172;2023-06-14T09:11:51;98889.81;;;17.69;26.26
73103;BME280;61294;65.988;29.172;2023-06-14T09:14:23;98903.69;;;17.80;27.04
73103;BME280;61294;65.988;29.172;2023-06-14T09:16:52;98887.22;;;17.97;26.46
73103;BME280;61294;65.988;29.172;2023-06-14T09:19:23;98896.25;;;18.21;26.50
73103;BME280;61294;65.988;29.172;2023-06-14T09:21:49;98894.31;;;18.53;25.01
73103;BME280;61294;65.988;29.172;2023-06-14T09:24:17;98886.31;;;18.53;25.79
73103;BME280;61294;65.988;29.172;2023-06-14T09:26:42;98890.41;;;18.90;26.02
73103;BME280;61294;65.988;29.172;2023-06-14T09:29:09;98892.72;;;19.01;25.75
73103;BME280;61294;65.988;29.172;2023-06-14T09:31:35;98883.47;;;19.35;26.46
73103;BME280;61294;65.988;29.172;2023-06-14T09:34:02;98886.84;;;19.40;25.77
73103;BME280;61294;65.988;29.172;2023-06-14T09:36:28;98883.50;;;19.59;24.72
73103;BME280;61294;65.988;29.172;2023-06-14T09:38:56;98877.97;;;19.63;25.33
73103;BME280;61294;65.988;29.172;2023-06-14T09:41:33;98869.69;;;20.17;24.66
73103;BME280;61294;65.988;29.172;2023-06-14T09:43:59;98859.09;;;20.36;23.05
73103;BME280;61294;65.988;29.172;2023-06-14T09:46:29;98855.09;;;20.68;25.61
73103;BME280;61294;65.988;29.172;2023-06-14T09:48:55;98870.56;;;21.63;23.46
73103;BME280;61294;65.988;29.172;2023-06-14T09:51:22;98846.25;;;24.27;19.68
73103;BME280;61294;65.988;29.172;2023-06-14T09:53:49;98837.34;;;28.01;16.49
73103;BME280;61294;65.988;29.172;2023-06-14T09:56:28;98843.81;;;29.42;16.27
73103;BME280;61294;65.988;29.172;2023-06-14T09:58:58;98847.88;;;31.13;14.39
73103;BME280;61294;65.988;29.172;2023-06-14T10:01:26;98837.66;;;31.98;13.54
73103;BME280;61294;65.988;29.172;2023-06-14T10:04:13;98842.69;;;33.97;13.39
73103;BME280;61294;65.988;29.172;2023-06-14T10:06:41;98835.81;;;33.55;12.03
73103;BME280;61294;65.988;29.172;2023-06-14T10:09:09;98836.63;;;31.89;12.85
73103;BME280;61294;65.988;29.172;2023-06-14T10:11:36;98842.34;;;32.37;13.02
73103;BME280;61294;65.988;29.172;2023-06-14T10:14:04;98848.09;;;34.06;13.49
73103;BME280;61294;65.988;29.172;2023-06-14T10:22:23;98833.25;;;34.09;12.16
73103;BME280;61294;65.988;29.172;2023-06-14T10:24:51;98828.78;;;34.36;12.60
73103;BME280;61294;65.988;29.172;2023-06-14T10:27:17;98826.66;;;35.46;12.55
73103;BME280;61294;65.988;29.172;2023-06-14T10:32:23;98795.50;;;39.72;10.50
73103;BME280;61294;65.988;29.172;2023-06-14T10:35:00;98806.31;;;37.08;12.33
73103;BME280;61294;65.988;29.172;2023-06-14T10:37:27;98809.81;;;31.84;15.19
73103;BME280;61294;65.988;29.172;2023-06-14T10:39:53;98808.41;;;30.21;16.08
73103;BME280;61294;65.988;29.172;2023-06-14T10:42:19;98816.06;;;30.27;16.87
73103;BME280;61294;65.988;29.172;2023-06-14T10:44:45;98817.22;;;34.78;14.12
73103;BME280;61294;65.988;29.172;2023-06-14T10:47:31;98811.47;;;36.62;12.58
73103;BME280;61294;65.988;29.172;2023-06-14T10:50:05;98816.69;;;39.41;10.75
73103;BME280;61294;65.988;29.172;2023-06-14T10:52:38;98814.91;;;38.72;10.85
73103;BME280;61294;65.988;29.172;2023-06-14T10:55:11;98817.56;;;40.81;10.08
73103;BME280;61294;65.988;29.172;2023-06-14T11:00:24;98807.41;;;34.49;12.82
73103;BME280;61294;65.988;29.172;2023-06-14T11:03:21;98806.97;;;35.51;12.37
73103;BME280;61294;65.988;29.172;2023-06-14T11:05:53;98786.91;;;37.18;11.58
73103;BME280;61294;65.988;29.172;2023-06-14T11:08:51;98800.59;;;36.27;12.46
73103;BME280;61294;65.988;29.172;2023-06-14T11:11:22;98803.31;;;39.38;11.30
73103;BME280;61294;65.988;29.172;2023-06-14T11:13:49;98800.47;;;39.61;10.39
73103;BME280;61294;65.988;29.172;2023-06-14T11:16:17;98803.94;;;38.41;9.92
73103;BME280;61294;65.988;29.172;2023-06-14T11:18:46;98797.59;;;37.77;10.51
73103;BME280;61294;65.988;29.172;2023-06-14T11:21:16;98794.75;;;37.54;11.03
73103;BME280;61294;65.988;29.172;2023-06-14T11:23:42;98797.09;;;38.60;11.57
73103;BME280;61294;65.988;29.172;2023-06-14T11:26:13;98799.41;;;39.32;10.65
73103;BME280;61294;65.988;29.172;2023-06-14T11:28:41;98785.91;;;39.67;11.12
73103;BME280;61294;65.988;29.172;2023-06-14T11:31:07;98797.44;;;40.23;10.11
73103;BME280;61294;65.988;29.172;2023-06-14T11:33:34;98778.88;;;38.82;10.65
73103;BME280;61294;65.988;29.172;2023-06-14T11:36:02;98797.91;;;36.69;10.60
73103;BME280;61294;65.988;29.172;2023-06-14T11:38:35;98786.47;;;35.02;12.32
73103;BME280;61294;65.988;29.172;2023-06-14T11:41:01;98790.69;;;37.81;9.77
73103;BME280;61294;65.988;29.172;2023-06-14T11:43:27;98787.31;;;38.80;10.54
73103;BME280;61294;65.988;29.172;2023-06-14T11:45:54;98781.88;;;37.46;10.77
73103;BME280;61294;65.988;29.172;2023-06-14T11:48:20;98781.25;;;39.53;9.50
73103;BME280;61294;65.988;29.172;2023-06-14T11:50:49;98780.03;;;38.88;10.15
73103;BME280;61294;65.988;29.172;2023-06-14T11:53:16;98769.28;;;40.92;9.90
73103;BME280;61294;65.988;29.172;2023-06-14T11:55:42;98770.41;;;38.69;10.64
73103;BME280;61294;65.988;29.172;2023-06-14T11:58:10;98779.31;;;37.93;10.74
73103;BME280;61294;65.988;29.172;2023-06-14T12:00:37;98773.84;;;38.39;11.12
73103;BME280;61294;65.988;29.172;2023-06-14T12:03:02;98771.69;;;40.00;10.64
73103;BME280;61294;65.988;29.172;2023-06-14T12:05:29;98766.91;;;39.13;11.21
73103;BME280;61294;65.988;29.172;2023-06-14T12:07:59;98754.84;;;39.14;10.73
73103;BME280;61294;65.988;29.172;2023-06-14T12:10:25;98762.63;;;39.40;10.18
73103;BME280;61294;65.988;29.172;2023-06-14T12:12:57;98770.09;;;39.91;10.78
73103;BME280;61294;65.988;29.172;2023-06-14T12:15:23;98758.69;;;39.05;9.92
73103;BME280;61294;65.988;29.172;2023-06-14T12:17:49;98761.66;;;40.29;10.85
73103;BME280;61294;65.988;29.172;2023-06-14T12:20:16;98738.94;;;40.77;10.43
73103;BME280;61294;65.988;29.172;2023-06-14T12:22:53;98745.63;;;40.40;10.63
73103;BME280;61294;65.988;29.172;2023-06-14T12:27:56;98751.81;;;38.62;11.30
73103;BME280;61294;65.988;29.172;2023-06-14T12:30:22;98753.00;;;38.45;10.80
73103;BME280;61294;65.988;29.172;2023-06-14T12:32:47;98740.38;;;37.33;12.15
73103;BME280;61294;65.988;29.172;2023-06-14T12:35:14;98736.28;;;39.67;11.54
73103;BME280;61294;65.988;29.172;2023-06-14T12:37:40;98740.03;;;40.33;12.41
73103;BME280;61294;65.988;29.172;2023-06-14T12:40:06;98739.38;;;40.31;11.13
73103;BME280;61294;65.988;29.172;2023-06-14T12:42:33;98726.00;;;39.76;10.68
73103;BME280;61294;65.988;29.172;2023-06-14T12:44:59;98736.22;;;38.78;11.12
73103;BME280;61294;65.988;29.172;2023-06-14T12:47:25;98744.34;;;38.33;11.07
73103;BME280;61294;65.988;29.172;2023-06-14T12:49:51;98737.09;;;38.78;10.57
73103;BME280;61294;65.988;29.172;2023-06-14T12:52:16;98737.03;;;38.63;10.23
73103;BME280;61294;65.988;29.172;2023-06-14T12:54:42;98730.03;;;39.44;10.29
73103;BME280;61294;65.988;29.172;2023-06-14T12:57:08;98744.66;;;39.59;9.59
73103;BME280;61294;65.988;29.172;2023-06-14T12:59:35;98739.06;;;38.46;11.10
73103;BME280;61294;65.988;29.172;2023-06-14T13:02:12;98711.41;;;39.97;11.21
73103;BME280;61294;65.988;29.172;2023-06-14T13:04:37;98735.59;;;37.67;10.96
73103;BME280;61294;65.988;29.172;2023-06-14T13:07:04;98736.72;;;38.12;11.12
73103;BME280;61294;65.988;29.172;2023-06-14T13:09:30;98729.59;;;40.28;10.55
73103;BME280;61294;65.988;29.172;2023-06-14T13:11:55;98732.03;;;39.35;10.38